createdAt,value
2018-07-24T00:00:17.376Z,17.8
2018-07-24T00:05:46.867Z,17.8
2018-07-24T00:11:23.217Z,17.7
2018-07-24T00:16:48.106Z,17.7
2018-07-24T00:22:17.296Z,17.6
2018-07-24T00:22:18.360Z,17.6
2018-07-24T00:27:48.072Z,17.6
2018-07-24T00:33:19.423Z,17.6
2018-07-24T00:33:23.254Z,17.6
2018-07-24T00:38:47.708Z,17.5
2018-07-24T00:44:22.558Z,17.5
2018-07-24T00:49:52.718Z,17.5
2018-07-24T00:55:17.141Z,17.5
2018-07-24T01:00:47.747Z,17.4
2018-07-24T01:00:48.211Z,17.4
2018-07-24T01:06:22.082Z,17.3
2018-07-24T01:11:51.716Z,17.1
2018-07-24T01:17:17.117Z,17.1
2018-07-24T01:22:46.312Z,17.1
2018-07-24T01:28:16.687Z,17
2018-07-24T01:33:47.091Z,16.9
2018-07-24T01:39:16.629Z,16.9
2018-07-24T01:44:45.980Z,17
2018-07-24T01:50:16.666Z,16.9
2018-07-24T01:55:47.108Z,16.9
2018-07-24T02:01:16.201Z,16.9
2018-07-24T02:01:17.319Z,16.9
2018-07-24T02:06:45.500Z,16.8
2018-07-24T02:12:20.286Z,16.7
2018-07-24T02:17:49.374Z,16.6
2018-07-24T02:23:19.618Z,16.6
2018-07-24T02:28:44.405Z,16.6
2018-07-24T02:34:14.398Z,16.7
2018-07-24T02:39:44.009Z,16.7
2018-07-24T02:45:13.178Z,16.7
2018-07-24T02:50:43.837Z,16.6
2018-07-24T02:50:45.439Z,16.6
2018-07-24T02:56:13.817Z,16.6
2018-07-24T02:56:15.269Z,16.6
2018-07-24T03:01:49.300Z,16.6
2018-07-24T03:07:19.778Z,16.6
2018-07-24T03:12:44.922Z,16.6
2018-07-24T03:12:45.339Z,16.6
2018-07-24T03:18:14.486Z,16.5
2018-07-24T03:23:48.628Z,16.5
2018-07-24T03:29:12.990Z,16.4
2018-07-24T03:29:13.994Z,16.4
2018-07-24T03:34:47.255Z,16.3
2018-07-24T03:40:13.480Z,16.2
2018-07-24T03:40:17.614Z,16.2
2018-07-24T03:45:42.837Z,16.2
2018-07-24T03:51:12.469Z,16.2
2018-07-24T03:51:13.525Z,16.2
2018-07-24T03:56:42.563Z,16.2
2018-07-24T04:02:11.872Z,16.2
2018-07-24T04:02:12.330Z,16.2
2018-07-24T04:07:42.127Z,16.2
2018-07-24T04:07:42.787Z,16.2
2018-07-24T04:13:17.861Z,16.2
2018-07-24T04:18:42.874Z,16.2
2018-07-24T04:18:43.583Z,16.2
2018-07-24T04:29:43.447Z,16.3
2018-07-24T04:35:13.821Z,16.3
2018-07-24T04:40:44.220Z,16.4
2018-07-24T04:46:14.477Z,16.5
2018-07-24T04:46:15.042Z,16.5
2018-07-24T04:51:43.823Z,16.5
2018-07-24T04:51:45.486Z,16.5
2018-07-24T04:57:14.190Z,16.6
2018-07-24T04:57:14.825Z,16.6
2018-07-24T05:02:48.626Z,16.8
2018-07-24T05:08:18.281Z,16.9
2018-07-24T05:13:43.540Z,17
2018-07-24T05:19:12.776Z,17.1
2018-07-24T05:24:42.790Z,17.2
2018-07-24T05:24:47.202Z,17.2
2018-07-24T05:30:11.872Z,17.3
2018-07-24T05:30:12.194Z,17.3
2018-07-24T05:35:42.042Z,17.4
2018-07-24T05:41:11.519Z,17.4
2018-07-24T05:41:16.058Z,17.4
2018-07-24T05:46:41.259Z,17.5
2018-07-24T05:52:11.391Z,17.6
2018-07-24T05:57:41.897Z,17.6
2018-07-24T05:57:43.026Z,17.6
2018-07-24T06:03:12.321Z,17.8
2018-07-24T06:08:42.325Z,17.9
2018-07-24T06:08:46.886Z,17.9
2018-07-24T06:14:11.897Z,18
2018-07-24T06:14:16.432Z,18
2018-07-24T06:19:41.128Z,18.2
2018-07-24T06:19:41.933Z,18.2
2018-07-24T06:25:16.555Z,18.3
2018-07-24T06:30:41.043Z,18.4
2018-07-24T06:36:16.646Z,18.5
2018-07-24T06:36:16.670Z,18.5
2018-07-24T06:41:47.509Z,18.6
2018-07-24T06:47:13.064Z,18.6
2018-07-24T06:47:13.530Z,18.6
2018-07-24T06:52:42.828Z,18.6
2018-07-24T06:52:42.946Z,18.6
2018-07-24T06:58:17.090Z,18.7
2018-07-24T07:03:43.014Z,18.7
2018-07-24T07:09:13.351Z,18.8
2018-07-24T07:14:48.104Z,18.9
2018-07-24T07:20:12.849Z,19.1
2018-07-24T07:25:42.705Z,19.2
2018-07-24T07:31:13.015Z,19.2
2018-07-24T07:36:43.773Z,19.3
2018-07-24T07:42:20.245Z,19.4
2018-07-24T07:47:43.076Z,19.5
2018-07-24T07:53:12.875Z,19.6
2018-07-24T07:58:43.580Z,19.7
2018-07-24T08:04:13.252Z,19.8
2018-07-24T08:09:48.168Z,19.9
2018-07-24T08:15:18.815Z,20
2018-07-24T08:20:44.413Z,20.2
2018-07-24T08:26:14.395Z,20.3
2018-07-24T08:31:44.272Z,20.4
2018-07-24T08:37:14.584Z,20.4
2018-07-24T08:42:50.376Z,20.5
2018-07-24T08:48:21.204Z,20.6
2018-07-24T08:53:51.722Z,20.7
2018-07-24T08:59:15.698Z,20.7
2018-07-24T09:04:45.526Z,20.8
2018-07-24T09:10:20.441Z,20.9
2018-07-24T09:15:45.233Z,21
2018-07-24T09:21:16.254Z,21.1
2018-07-24T09:26:51.797Z,21.2
2018-07-24T09:32:21.676Z,21.2
2018-07-24T09:37:47.626Z,21.3
2018-07-24T09:43:18.406Z,21.5
2018-07-24T09:48:49.382Z,21.6
2018-07-24T09:54:19.276Z,21.7
2018-07-24T09:59:50.175Z,21.8
2018-07-24T10:05:21.368Z,22
2018-07-24T10:10:51.137Z,22.1
2018-07-24T10:16:22.304Z,22.2
2018-07-24T10:21:53.865Z,22.2
2018-07-24T10:27:24.163Z,22.2
2018-07-24T10:32:54.309Z,22.2
2018-07-24T10:38:24.125Z,22.3
2018-07-24T10:43:58.904Z,22.4
2018-07-24T10:49:29.828Z,22.4
2018-07-24T10:54:59.771Z,22.5
2018-07-24T11:00:25.790Z,22.6
2018-07-24T11:06:01.847Z,22.7
2018-07-24T11:11:33.146Z,22.8
2018-07-24T11:16:59.121Z,22.9
2018-07-24T11:22:29.456Z,23
2018-07-24T11:28:04.072Z,23
2018-07-24T11:33:30.118Z,23.1
2018-07-24T11:39:01.504Z,23.3
2018-07-24T11:44:32.335Z,23.3
2018-07-24T11:50:02.342Z,23.1
2018-07-24T11:55:32.715Z,23.3
2018-07-24T12:01:02.577Z,23.4
2018-07-24T12:06:38.909Z,23.4
2018-07-24T12:12:03.920Z,23.6
2018-07-24T12:17:33.937Z,23.6
2018-07-24T12:23:04.054Z,23.7
2018-07-24T12:28:40.317Z,23.8
2018-07-24T12:34:05.532Z,23.9
2018-07-24T12:39:36.794Z,23.8
2018-07-24T12:45:08.033Z,23.8
2018-07-24T12:50:38.969Z,24
2018-07-24T12:56:09.145Z,24
2018-07-24T13:01:39.275Z,24.1
2018-07-24T13:07:10.556Z,24.3
2018-07-24T13:12:40.979Z,24.5
2018-07-24T13:18:11.040Z,24.5
2018-07-24T13:23:41.215Z,24.4
2018-07-24T13:23:42.682Z,24.4
2018-07-24T13:29:17.629Z,24.4
2018-07-24T13:34:43.069Z,24.3
2018-07-24T13:40:13.147Z,24.2
2018-07-24T13:45:48.437Z,24.2
2018-07-24T13:51:14.470Z,24.2
2018-07-24T13:56:44.971Z,24.3
2018-07-24T14:02:14.785Z,24.5
2018-07-24T14:07:51.071Z,24.8
2018-07-24T14:13:17.576Z,25
2018-07-24T14:18:48.678Z,25.1
2018-07-24T14:24:19.329Z,25
2018-07-24T14:29:49.354Z,25.1
2018-07-24T14:35:19.941Z,25.1
2018-07-24T14:40:51.273Z,25.1
2018-07-24T14:46:22.320Z,25
2018-07-24T14:51:52.631Z,25
2018-07-24T14:57:28.180Z,25
2018-07-24T15:02:53.213Z,25
2018-07-24T15:08:29.774Z,25.1
2018-07-24T15:13:55.191Z,25.2
2018-07-24T15:19:25.328Z,25.1
2018-07-24T15:24:56.572Z,25.2
2018-07-24T15:30:28.182Z,25.2
2018-07-24T15:36:04.620Z,25.1
2018-07-24T15:41:29.820Z,24.9
2018-07-24T15:47:06.126Z,24.9
2018-07-24T15:52:32.259Z,24.9
2018-07-24T15:58:02.725Z,24.9
2018-07-24T16:03:32.750Z,24.9
2018-07-24T16:09:04.073Z,24.9
2018-07-24T16:14:39.711Z,25
2018-07-24T16:20:05.976Z,25
2018-07-24T16:25:37.059Z,25
2018-07-24T16:31:07.381Z,25
2018-07-24T16:36:42.976Z,25
2018-07-24T16:42:12.802Z,25
2018-07-24T16:47:40.726Z,24.9
2018-07-24T16:53:10.842Z,24.9
2018-07-24T16:58:41.185Z,25
2018-07-24T17:04:12.418Z,24.9
2018-07-24T17:09:43.852Z,24.9
2018-07-24T17:15:15.240Z,24.8
2018-07-24T17:20:45.195Z,24.8
2018-07-24T17:26:15.573Z,24.7
2018-07-24T17:31:50.746Z,24.6
2018-07-24T17:37:16.938Z,24.4
2018-07-24T17:42:47.422Z,24.3
2018-07-24T17:42:47.709Z,24.3
2018-07-24T17:48:18.525Z,24.2
2018-07-24T17:53:47.700Z,24.1
2018-07-24T17:59:23.830Z,24
2018-07-24T18:04:50.004Z,24
2018-07-24T18:10:20.543Z,23.9
2018-07-24T18:15:51.689Z,23.8
2018-07-24T18:21:22.581Z,23.8
2018-07-24T18:26:59.053Z,23.8
2018-07-24T18:32:23.951Z,23.7
2018-07-24T18:38:00.067Z,23.6
2018-07-24T18:43:30.495Z,23.5
2018-07-24T18:48:56.567Z,23.4
2018-07-24T18:54:31.408Z,23.3
2018-07-24T18:59:57.785Z,23.2
2018-07-24T19:05:27.750Z,23.1
2018-07-24T19:11:03.750Z,23
2018-07-24T19:16:28.777Z,23
2018-07-24T19:21:58.997Z,22.9
2018-07-24T19:27:29.020Z,22.9
2018-07-24T19:32:59.946Z,22.8
2018-07-24T19:38:36.318Z,22.8
2018-07-24T19:44:01.290Z,22.8
2018-07-24T19:49:31.459Z,22.8
2018-07-24T19:55:06.680Z,22.8
2018-07-24T20:00:36.294Z,22.7
2018-07-24T20:06:02.320Z,22.7
2018-07-24T20:11:33.286Z,22.6
2018-07-24T20:17:08.574Z,22.6
2018-07-24T20:22:39.527Z,22.5
2018-07-24T20:28:10.320Z,22.4
2018-07-24T20:33:35.289Z,22.3
2018-07-24T20:39:05.503Z,22.2
2018-07-24T20:44:36.503Z,22.1
2018-07-24T20:50:06.176Z,22.1
2018-07-24T20:55:42.522Z,22
2018-07-24T21:01:07.156Z,21.9
2018-07-24T21:06:36.971Z,21.8
2018-07-24T21:12:08.176Z,21.7
2018-07-24T21:17:37.850Z,21.7
2018-07-24T21:23:09.015Z,21.6
2018-07-24T21:28:39.933Z,21.6
2018-07-24T21:34:09.826Z,21.6
2018-07-24T21:39:39.465Z,21.5
2018-07-24T21:45:09.601Z,21.5
2018-07-24T21:50:45.410Z,21.4
2018-07-24T21:56:10.270Z,21.3
2018-07-24T22:01:39.985Z,21.2
2018-07-24T22:07:10.147Z,21.1
2018-07-24T22:12:39.639Z,21
2018-07-24T22:18:10.470Z,21
2018-07-24T22:23:46.287Z,21
2018-07-24T22:29:12.330Z,21
2018-07-24T22:34:41.905Z,21
2018-07-24T22:40:16.786Z,20.9
2018-07-24T22:45:41.577Z,20.9
2018-07-24T22:51:11.533Z,20.9
2018-07-24T22:56:47.270Z,20.8
2018-07-24T23:02:11.963Z,20.7
2018-07-24T23:07:42.738Z,20.7
2018-07-24T23:13:18.582Z,20.6
2018-07-24T23:18:44.288Z,20.6
2018-07-24T23:24:20.190Z,20.5
2018-07-24T23:29:44.878Z,20.5
2018-07-24T23:35:14.704Z,20.5
2018-07-24T23:40:45.808Z,20.5
2018-07-24T23:40:50.967Z,20.5
2018-07-24T23:46:16.238Z,20.4
2018-07-24T23:51:47.188Z,20.3
2018-07-24T23:57:17.974Z,20.3
